Time;durP1;ratioP1;P1;durP2;ratioP2;P2;SDS_P1;SDS_P2;PMS_P1;PMS_P2;Temp;Humidity;BMP_temperature;BMP_pressure;BME280_temperature;BME280_humidity;BME280_pressure;Samples;Min_cycle;Max_cycle;Signal;HPM_P1;HPM_P2
2022/09/25 00:02:00;;;;;;;11.65;6.30;;;;;;;14.70;84.55;99543.91;5070217;27;20067;-90
2022/09/25 00:04:27;;;;;;;11.60;5.82;;;;;;;14.72;84.72;99547.25;5092609;27;20035;-90
2022/09/25 00:06:53;;;;;;;9.20;4.70;;;;;;;14.75;84.66;99549.59;5074867;27;20101;-91
2022/09/25 00:09:22;;;;;;;9.13;3.95;;;;;;;14.75;84.71;99553.09;5091959;27;20096;-91
2022/09/25 00:11:49;;;;;;;7.35;3.55;;;;;;;14.76;84.61;99549.44;5101776;27;20114;-90
2022/09/25 00:14:16;;;;;;;7.50;4.05;;;;;;;14.77;84.42;99547.59;5080624;27;20051;-91
2022/09/25 00:16:43;;;;;;;9.80;3.42;;;;;;;14.77;84.62;99548.41;5102874;27;20155;-90
2022/09/25 00:22:05;;;;;;;6.30;4.45;;;;;;;14.74;84.81;99537.25;5096217;27;20050;-90
2022/09/25 00:24:32;;;;;;;8.15;3.67;;;;;;;14.74;84.62;99531.91;5099904;27;20081;-92
2022/09/25 00:26:59;;;;;;;5.82;3.55;;;;;;;14.75;84.36;99525.53;5084613;27;20096;-91
2022/09/25 00:29:26;;;;;;;5.80;3.53;;;;;;;14.75;84.51;99523.69;5106168;27;20520;-90
2022/09/25 00:31:54;;;;;;;9.23;4.35;;;;;;;14.76;84.44;99519.19;5093659;27;20065;-90
2022/09/25 00:34:20;;;;;;;7.10;3.92;;;;;;;14.74;84.61;99524.69;5094258;27;20414;-90
2022/09/25 00:36:47;;;;;;;5.32;3.70;;;;;;;14.72;84.64;99529.38;5095174;27;20043;-90
2022/09/25 00:39:14;;;;;;;5.95;4.18;;;;;;;14.71;84.81;99527.72;5078708;27;20082;-90
2022/09/25 00:41:40;;;;;;;8.27;4.38;;;;;;;14.68;84.77;99529.88;5083323;27;20088;-91
2022/09/25 00:44:45;;;;;;;11.55;3.75;;;;;;;14.52;85.41;99531.53;5104264;27;20114;-91
2022/09/25 00:47:15;;;;;;;7.40;4.53;;;;;;;14.60;85.12;99527.22;5108828;27;20035;-90
2022/09/25 00:49:41;;;;;;;8.82;4.03;;;;;;;14.66;85.24;99531.91;5102354;27;20093;-91
2022/09/25 00:52:11;;;;;;;9.55;4.18;;;;;;;14.72;84.23;99526.72;5082393;27;20048;-92
2022/09/25 00:54:51;;;;;;;8.45;4.63;;;;;;;14.59;84.95;99525.56;5076283;27;20068;-92
2022/09/25 00:57:21;;;;;;;6.93;4.50;;;;;;;14.69;84.09;99521.72;5091103;27;20046;-92
2022/09/25 00:59:51;;;;;;;7.35;4.32;;;;;;;14.68;84.63;99519.19;5081296;27;20049;-91
2022/09/25 01:02:30;;;;;;;10.75;4.75;;;;;;;14.58;84.66;99526.56;5082778;27;20529;-91
2022/09/25 01:05:01;;;;;;;9.32;5.22;;;;;;;14.68;84.46;99525.41;5098881;27;20099;-91
2022/09/25 01:07:31;;;;;;;10.02;5.25;;;;;;;14.66;83.81;99521.22;5093260;27;20039;-90
2022/09/25 01:09:59;;;;;;;10.52;5.28;;;;;;;14.68;84.03;99516.53;5101403;27;20035;-90
2022/09/25 01:12:26;;;;;;;11.68;5.65;;;;;;;14.70;83.99;99509.16;5076420;27;20063;-90
2022/09/25 01:14:55;;;;;;;11.10;5.75;;;;;;;14.72;84.13;99509.84;5087578;27;20090;-90
2022/09/25 01:17:33;;;;;;;10.98;5.05;;;;;;;14.67;84.61;99512.19;5079878;27;20046;-92
2022/09/25 01:20:24;;;;;;;11.82;5.78;;;;;;;14.62;84.64;99512.69;5082225;27;20125;-92
2022/09/25 01:22:53;;;;;;;11.18;5.47;;;;;;;14.62;84.73;99517.22;5108779;27;20043;-90
2022/09/25 01:26:07;;;;;;;12.07;5.38;;;;;;;14.53;84.24;99511.88;5114287;27;20085;-89
2022/09/25 01:28:42;;;;;;;9.60;5.40;;;;;;;14.66;83.77;99510.53;5076693;27;20391;-90
2022/09/25 01:31:16;;;;;;;15.75;5.30;;;;;;;14.61;84.22;99515.56;5090161;27;20122;-89
2022/09/25 01:33:45;;;;;;;11.90;5.70;;;;;;;14.65;84.27;99515.03;5100727;27;20040;-90
2022/09/25 01:36:37;;;;;;;10.35;4.90;;;;;;;14.52;85.44;99507.50;5070766;27;20402;-91
2022/09/25 01:39:13;;;;;;;13.07;6.13;;;;;;;14.63;84.76;99508.19;5106218;27;20428;-90
2022/09/25 01:41:44;;;;;;;10.90;5.43;;;;;;;14.64;84.70;99499.19;5104792;27;20031;-91
2022/09/25 01:44:29;;;;;;;12.50;5.95;;;;;;;14.53;85.44;99503.88;5083036;27;20047;-91
2022/09/25 01:47:03;;;;;;;12.85;6.00;;;;;;;14.56;85.29;99504.53;5083567;27;20035;-90
2022/09/25 01:49:34;;;;;;;15.10;6.35;;;;;;;14.58;85.09;99510.53;5062019;27;20103;-90
2022/09/25 01:52:05;;;;;;;14.55;5.70;;;;;;;14.59;85.48;99510.38;5087495;27;20044;-90
2022/09/25 01:54:35;;;;;;;12.55;6.32;;;;;;;14.58;85.64;99502.50;5099672;27;20053;-90
2022/09/25 01:57:08;;;;;;;9.35;5.50;;;;;;;14.57;85.84;99506.19;5075576;27;20085;-91
2022/09/25 01:59:53;;;;;;;12.77;6.05;;;;;;;14.47;86.08;99499.16;5074668;27;20395;-90
2022/09/25 02:02:24;;;;;;;14.15;6.00;;;;;;;14.61;85.55;99495.00;5100850;27;20483;-91
2022/09/25 02:04:54;;;;;;;14.10;6.63;;;;;;;14.59;85.39;99488.16;5093651;27;20053;-90
2022/09/25 02:08:09;;;;;;;13.15;6.47;;;;;;;14.49;85.59;99491.81;5089406;27;20549;-90
2022/09/25 02:10:50;;;;;;;10.98;6.22;;;;;;;14.49;85.66;99490.97;5072188;27;20043;-91
2022/09/25 02:13:17;;;;;;;16.48;6.82;;;;;;;14.60;85.25;99487.97;5107245;27;20051;-91
2022/09/25 02:15:49;;;;;;;11.95;6.40;;;;;;;14.54;84.85;99492.16;5077124;27;20057;-90
2022/09/25 02:21:30;;;;;;;17.60;7.30;;;;;;;14.43;85.46;99489.81;5104336;27;20040;-91
2022/09/25 02:24:09;;;;;;;13.02;6.53;;;;;;;14.45;85.53;99495.84;5109384;27;20055;-91
2022/09/25 02:26:37;;;;;;;13.40;7.07;;;;;;;14.49;85.61;99486.47;5081475;27;20038;-90
2022/09/25 02:29:04;;;;;;;17.30;7.55;;;;;;;14.51;85.41;99487.13;5084833;27;20096;-90
2022/09/25 02:31:35;;;;;;;18.70;7.75;;;;;;;14.50;85.39;99492.63;5084239;27;20061;-90
2022/09/25 02:34:05;;;;;;;15.35;7.30;;;;;;;14.56;85.16;99489.34;5094639;27;20052;-90
2022/09/25 02:36:41;;;;;;;17.40;7.30;;;;;;;14.49;85.46;99482.97;5108499;27;20400;-90
2022/09/25 02:39:09;;;;;;;21.98;8.85;;;;;;;14.53;85.56;99487.00;5074500;27;20079;-91
2022/09/25 02:41:42;;;;;;;16.23;8.15;;;;;;;14.47;85.51;99487.63;5090555;27;20050;-91
2022/09/25 02:44:45;;;;;;;20.15;8.18;;;;;;;14.38;86.00;99484.16;5121220;27;20049;-90
2022/09/25 02:47:31;;;;;;;19.63;8.77;;;;;;;14.36;86.22;99480.00;5085078;27;20050;-90
2022/09/25 02:50:10;;;;;;;14.77;7.38;;;;;;;14.35;85.91;99484.50;5088416;27;20510;-90
2022/09/25 02:53:00;;;;;;;16.30;8.02;;;;;;;14.29;86.45;99482.47;5128041;27;20058;-90
2022/09/25 02:55:53;;;;;;;16.42;8.50;;;;;;;14.36;86.16;99488.00;5099378;27;20157;-91
2022/09/25 02:58:41;;;;;;;15.15;8.13;;;;;;;14.36;85.95;99486.16;5102133;27;20544;-90
2022/09/25 03:01:09;;;;;;;15.52;8.20;;;;;;;14.44;85.88;99483.47;5120982;27;20031;-90
2022/09/25 03:03:37;;;;;;;20.25;9.00;;;;;;;14.48;85.80;99489.31;5068111;27;20514;-89
2022/09/25 03:06:05;;;;;;;21.15;8.77;;;;;;;14.48;85.77;99484.81;5074751;27;20086;-89
2022/09/25 03:08:40;;;;;;;17.50;8.82;;;;;;;14.50;85.51;99485.47;5116909;27;20083;-90
2022/09/25 03:11:15;;;;;;;17.92;9.07;;;;;;;14.49;85.39;99481.13;5081838;27;20138;-90
2022/09/25 03:17:56;;;;;;;15.18;7.95;;;;;;;14.46;85.70;99476.13;5098919;28;20052;-91
2022/09/25 03:20:23;;;;;;;16.05;7.75;;;;;;;14.51;85.28;99476.44;5096552;27;20498;-90
2022/09/25 03:22:50;;;;;;;17.23;7.50;;;;;;;14.51;85.32;99481.78;5124013;27;20455;-92
2022/09/25 03:25:17;;;;;;;22.63;9.65;;;;;;;14.51;85.29;99481.78;5073405;28;20047;-90
2022/09/25 03:27:45;;;;;;;13.77;7.60;;;;;;;14.52;85.40;99471.94;5093761;27;20116;-90
2022/09/25 03:30:12;;;;;;;24.55;8.18;;;;;;;14.55;85.20;99479.63;5101574;27;20047;-91
2022/09/25 03:32:41;;;;;;;15.27;7.97;;;;;;;14.53;85.00;99479.81;5089464;27;20067;-90
2022/09/25 03:35:08;;;;;;;20.42;8.43;;;;;;;14.52;85.58;99477.28;5089542;27;20038;-90
2022/09/25 03:37:34;;;;;;;17.40;8.95;;;;;;;14.49;85.63;99481.13;5094240;28;20042;-91
2022/09/25 03:40:01;;;;;;;18.73;9.30;;;;;;;14.46;85.94;99476.13;5074258;28;20420;-91
2022/09/25 03:42:28;;;;;;;20.73;9.70;;;;;;;14.47;86.38;99485.78;5075591;27;20050;-91
2022/09/25 03:44:55;;;;;;;19.73;9.77;;;;;;;14.50;86.17;99479.28;5077268;28;20047;-91
2022/09/25 03:47:22;;;;;;;17.85;8.98;;;;;;;14.50;86.30;99476.59;5080575;27;20062;-90
2022/09/25 03:49:48;;;;;;;19.63;8.90;;;;;;;14.50;86.31;99473.94;5059570;27;20090;-91
2022/09/25 03:52:16;;;;;;;18.55;8.80;;;;;;;14.52;86.33;99474.59;5074845;28;20051;-91
2022/09/25 03:54:42;;;;;;;19.83;9.55;;;;;;;14.51;86.33;99471.09;5088528;27;20050;-92
2022/09/25 03:57:11;;;;;;;17.17;9.18;;;;;;;14.52;86.35;99477.28;5072066;27;20113;-91
2022/09/25 03:59:37;;;;;;;18.52;9.30;;;;;;;14.52;86.41;99477.28;5082981;27;20043;-91
2022/09/25 04:02:04;;;;;;;19.23;10.13;;;;;;;14.54;86.14;99483.31;5102221;27;20051;-90
2022/09/25 04:04:31;;;;;;;20.80;9.55;;;;;;;14.57;85.96;99480.31;5091396;28;20127;-90
2022/09/25 04:06:58;;;;;;;18.83;9.38;;;;;;;14.57;85.87;99480.31;5074660;27;20383;-91
2022/09/25 04:09:25;;;;;;;21.38;9.68;;;;;;;14.57;86.13;99485.66;5087065;27;20050;-89
2022/09/25 04:11:54;;;;;;;21.30;9.35;;;;;;;14.54;86.33;99477.97;5082563;27;20083;-92
2022/09/25 04:14:21;;;;;;;24.02;9.70;;;;;;;14.54;86.51;99483.31;5090488;27;20054;-92
2022/09/25 04:16:47;;;;;;;22.00;9.55;;;;;;;14.57;86.51;99480.31;5110017;27;20043;-90
2022/09/25 04:19:14;;;;;;;18.30;8.48;;;;;;;14.51;86.60;99468.44;5078644;27;20050;-90
2022/09/25 04:21:41;;;;;;;17.88;9.48;;;;;;;14.55;86.18;99468.94;5093489;27;20131;-90
2022/09/25 04:26:54;;;;;;;15.98;8.18;;;;;;;14.49;86.61;99470.44;5084654;27;20101;-90
2022/09/25 04:29:23;;;;;;;15.68;8.00;;;;;;;14.51;86.42;99467.59;5073674;27;20050;-90
2022/09/25 04:33:45;;;;;;;19.13;8.50;;;;;;;14.49;86.29;99469.59;5072045;27;20047;-90
2022/09/25 04:34:36;;;;;;;21.90;8.98;;;;;;;14.49;86.54;99477.63;5110666;27;20039;-90
2022/09/25 04:37:03;;;;;;;15.68;7.82;;;;;;;14.49;86.49;99478.44;5097641;27;20036;-90
2022/09/25 04:39:30;;;;;;;18.60;8.40;;;;;;;14.50;86.70;99472.13;5086768;27;20483;-90
2022/09/25 04:41:56;;;;;;;22.52;8.70;;;;;;;14.53;86.03;99473.66;5083466;27;20050;-91
2022/09/25 04:44:23;;;;;;;18.40;8.73;;;;;;;14.51;86.46;99473.78;5090177;27;20051;-91
2022/09/25 04:46:51;;;;;;;16.63;8.32;;;;;;;14.52;86.54;99470.09;5078457;27;20044;-90
2022/09/25 04:49:18;;;;;;;17.92;8.77;;;;;;;14.53;86.94;99476.31;5091607;27;20035;-90
2022/09/25 04:51:44;;;;;;;20.58;8.68;;;;;;;14.52;86.64;99479.94;5117661;27;20200;-91
2022/09/25 04:54:13;;;;;;;18.88;9.07;;;;;;;14.52;86.58;99478.09;5109578;27;20515;-91
2022/09/25 04:56:42;;;;;;;19.98;8.88;;;;;;;14.50;86.55;99473.94;5108287;27;20035;-91
2022/09/25 04:59:10;;;;;;;17.98;9.27;;;;;;;14.50;86.62;99477.47;5082851;27;20040;-91
2022/09/25 05:01:37;;;;;;;20.33;9.18;;;;;;;14.49;86.63;99473.09;5082277;27;20058;-91
2022/09/25 05:04:04;;;;;;;25.10;10.43;;;;;;;14.49;86.87;99474.94;5095002;27;20082;-91
2022/09/25 05:06:34;;;;;;;25.00;11.30;;;;;;;14.50;86.67;99476.59;5063394;27;20039;-90
2022/09/25 05:09:02;;;;;;;25.60;10.93;;;;;;;14.48;86.89;99479.47;5084571;27;20051;-90
2022/09/25 05:11:28;;;;;;;24.33;11.43;;;;;;;14.49;86.79;99486.47;5099448;27;20431;-90
2022/09/25 05:13:55;;;;;;;28.65;11.88;;;;;;;14.48;87.01;99471.44;5125783;27;20378;-91
2022/09/25 05:16:22;;;;;;;23.45;11.43;;;;;;;14.54;86.81;99480.66;5080221;27;20039;-91
2022/09/25 05:18:49;;;;;;;22.80;11.32;;;;;;;14.51;87.17;99478.28;5062751;27;20039;-92
2022/09/25 05:21:15;;;;;;;29.95;12.13;;;;;;;14.52;87.14;99474.59;5060725;27;20059;-91
2022/09/25 05:23:42;;;;;;;29.20;12.70;;;;;;;14.50;87.32;99468.59;5097885;27;20051;-91
2022/09/25 05:26:09;;;;;;;28.27;13.75;;;;;;;14.53;86.83;99465.63;5093758;27;20455;-92
2022/09/25 05:28:36;;;;;;;31.90;14.07;;;;;;;14.51;87.00;99468.44;5076960;27;20130;-91
2022/09/25 05:31:04;;;;;;;33.97;14.55;;;;;;;14.54;86.97;99473.47;5101665;27;20043;-93
2022/09/25 05:33:34;;;;;;;29.08;14.25;;;;;;;14.48;87.12;99474.13;5102486;27;20514;-91
2022/09/25 05:36:02;;;;;;;35.20;14.40;;;;;;;14.54;87.07;99467.28;5068968;27;20466;-91
2022/09/25 05:38:31;;;;;;;30.35;13.70;;;;;;;14.54;86.94;99468.13;5081271;27;20047;-90
2022/09/25 05:41:06;;;;;;;35.00;15.90;;;;;;;14.45;87.43;99466.44;5105954;27;20047;-91
2022/09/25 05:43:39;;;;;;;36.92;16.02;;;;;;;14.48;87.28;99466.09;5064358;27;20437;-91
2022/09/25 05:46:05;;;;;;;37.67;15.50;;;;;;;14.52;87.55;99471.94;5069946;27;20044;-90
2022/09/25 05:48:32;;;;;;;28.70;13.63;;;;;;;14.54;86.94;99473.47;5092313;27;20501;-91
2022/09/25 05:50:59;;;;;;;38.92;15.38;;;;;;;14.51;87.33;99468.44;5075093;27;20062;-91
2022/09/25 05:53:26;;;;;;;40.88;17.55;;;;;;;14.51;87.21;99468.44;5079596;27;20054;-91
2022/09/25 05:55:56;;;;;;;39.83;18.85;;;;;;;14.53;87.25;99473.66;5060261;27;20067;-94
2022/09/25 05:58:24;;;;;;;47.13;18.25;;;;;;;14.52;87.15;99466.59;5065113;27;20051;-90
2022/09/25 06:00:51;;;;;;;40.30;17.10;;;;;;;14.51;87.21;99472.94;5083644;27;20522;-91
2022/09/25 06:03:19;;;;;;;51.60;17.85;;;;;;;14.53;87.61;99470.97;5097933;27;20042;-91
2022/09/25 06:05:48;;;;;;;42.70;17.90;;;;;;;14.51;87.95;99468.44;5094363;27;20057;-91
2022/09/25 06:08:15;;;;;;;41.30;18.55;;;;;;;14.51;88.06;99470.28;5101752;27;20091;-90
2022/09/25 06:10:41;;;;;;;40.40;19.30;;;;;;;14.53;87.76;99469.13;5088241;27;20142;-90
2022/09/25 06:13:08;;;;;;;41.22;19.23;;;;;;;14.56;87.53;99467.13;5060721;27;20084;-90
2022/09/25 06:15:37;;;;;;;36.03;16.08;;;;;;;14.60;87.54;99473.78;5101758;27;20145;-91
2022/09/25 06:18:05;;;;;;;36.22;15.45;;;;;;;14.61;87.55;99478.16;5088601;27;20046;-91
2022/09/25 06:20:31;;;;;;;36.53;16.42;;;;;;;14.61;87.70;99476.31;5088708;27;20042;-90
2022/09/25 06:22:59;;;;;;;39.25;15.98;;;;;;;14.61;87.49;99478.16;5073561;27;20045;-90
2022/09/25 06:25:28;;;;;;;36.88;14.10;;;;;;;14.61;87.68;99478.16;5082731;27;20255;-91
2022/09/25 06:27:56;;;;;;;30.00;13.02;;;;;;;14.61;87.54;99478.97;5084545;28;20048;-90
2022/09/25 06:30:26;;;;;;;31.88;14.75;;;;;;;14.61;87.87;99478.97;5093620;27;20115;-90
2022/09/25 06:33:00;;;;;;;31.13;13.23;;;;;;;14.52;87.81;99478.09;5085273;27;20055;-91
2022/09/25 06:35:28;;;;;;;37.72;15.00;;;;;;;14.61;87.51;99467.47;5089166;27;20071;-91
2022/09/25 06:37:58;;;;;;;41.40;16.45;;;;;;;14.58;87.50;99479.31;5083831;27;20038;-91
2022/09/25 06:40:26;;;;;;;32.17;14.52;;;;;;;14.63;87.51;99481.47;5094663;27;20046;-90
2022/09/25 06:42:57;;;;;;;34.83;13.98;;;;;;;14.64;87.30;99472.44;5071214;27;20078;-90
2022/09/25 06:45:25;;;;;;;34.88;14.02;;;;;;;14.63;87.48;99482.31;5084584;27;20043;-89
2022/09/25 06:47:56;;;;;;;33.85;14.13;;;;;;;14.65;87.48;99482.13;5077243;27;20046;-90
2022/09/25 06:50:30;;;;;;;34.55;13.68;;;;;;;14.68;87.51;99481.78;5109207;27;20039;-90
2022/09/25 06:52:58;;;;;;;31.95;13.90;;;;;;;14.67;87.51;99483.63;5114997;27;20047;-89
2022/09/25 06:55:31;;;;;;;44.10;14.27;;;;;;;14.67;87.49;99483.63;5085776;27;20104;-92
2022/09/25 06:57:57;;;;;;;44.65;15.32;;;;;;;14.68;87.86;99481.78;5101945;27;20039;-92
2022/09/25 07:00:24;;;;;;;42.10;15.80;;;;;;;14.68;87.52;99476.44;5086234;27;20390;-91
2022/09/25 07:05:36;;;;;;;46.22;15.75;;;;;;;14.69;87.70;99486.13;5093917;27;20054;-92
2022/09/25 07:08:03;;;;;;;44.30;14.73;;;;;;;14.71;87.87;99487.63;5069424;27;20052;-93
2022/09/25 07:10:30;;;;;;;48.22;17.20;;;;;;;14.68;87.73;99479.97;5062363;27;20043;-92
2022/09/25 07:12:57;;;;;;;45.35;17.17;;;;;;;14.70;87.74;99493.13;5107751;28;20051;-92
2022/09/25 07:15:23;;;;;;;50.80;17.27;;;;;;;14.73;87.49;99493.66;5117446;27;20100;-92
2022/09/25 07:17:50;;;;;;;52.10;17.90;;;;;;;14.68;87.51;99485.31;5076563;27;20042;-91
2022/09/25 07:20:17;;;;;;;48.70;17.00;;;;;;;14.71;87.61;99492.97;5059175;27;21012;-91
2022/09/25 07:22:43;;;;;;;55.35;16.95;;;;;;;14.72;87.35;99494.63;5064640;27;20103;-91
2022/09/25 07:25:11;;;;;;;44.17;17.42;;;;;;;14.73;87.40;99496.31;5083132;27;20058;-91
2022/09/25 07:27:38;;;;;;;53.28;21.23;;;;;;;14.74;87.41;99491.81;5094235;27;20042;-91
2022/09/25 07:30:06;;;;;;;58.47;18.30;;;;;;;14.73;87.77;99490.13;5067057;27;20054;-90
2022/09/25 07:32:33;;;;;;;57.95;19.75;;;;;;;14.77;87.51;99496.81;5086092;27;20051;-90
2022/09/25 07:35:02;;;;;;;67.53;20.15;;;;;;;14.78;87.77;99493.09;5080123;27;20053;-89
2022/09/25 07:37:30;;;;;;;64.13;20.13;;;;;;;14.79;87.77;99496.66;5070589;27;20047;-90
2022/09/25 07:39:56;;;;;;;60.78;20.67;;;;;;;14.80;87.76;99493.78;5070378;27;20138;-89
2022/09/25 07:42:23;;;;;;;64.65;20.42;;;;;;;14.84;87.46;99488.94;5090111;27;20074;-90
2022/09/25 07:44:50;;;;;;;69.35;22.17;;;;;;;14.84;87.81;99489.78;5098220;27;20078;-90
2022/09/25 07:47:18;;;;;;;73.30;22.00;;;;;;;14.88;87.62;99501.81;5089871;27;20063;-89
2022/09/25 07:49:45;;;;;;;78.25;25.40;;;;;;;14.92;87.25;99508.44;5091910;27;20512;-89
2022/09/25 07:52:13;;;;;;;79.68;24.30;;;;;;;14.92;87.58;99502.28;5059695;27;20050;-89
2022/09/25 07:54:39;;;;;;;76.10;24.92;;;;;;;14.94;87.72;99500.28;5103695;27;20105;-90
2022/09/25 07:57:06;;;;;;;67.70;21.90;;;;;;;14.97;87.55;99489.22;5078729;27;20047;-89
2022/09/25 07:59:33;;;;;;;76.88;24.63;;;;;;;14.99;87.22;99497.91;5074190;27;20510;-89
2022/09/25 08:02:00;;;;;;;77.38;23.75;;;;;;;15.02;87.33;99494.06;5093448;27;20043;-89
2022/09/25 08:04:26;;;;;;;74.32;24.48;;;;;;;15.05;86.99;99496.38;5109530;27;20107;-89
2022/09/25 08:06:54;;;;;;;86.22;28.27;;;;;;;15.06;87.16;99496.22;5084859;27;20077;-89
2022/09/25 08:09:20;;;;;;;75.55;24.20;;;;;;;15.06;87.35;99485.53;5074230;27;20043;-91
2022/09/25 08:11:47;;;;;;;90.40;27.65;;;;;;;15.08;87.10;99491.50;5082104;27;20050;-90
2022/09/25 08:14:14;;;;;;;85.78;28.05;;;;;;;15.11;86.92;99490.31;5103924;27;20048;-90
2022/09/25 08:16:42;;;;;;;91.57;29.55;;;;;;;15.11;86.97;99490.31;5081515;27;20051;-89
2022/09/25 08:19:10;;;;;;;78.97;26.58;;;;;;;15.14;86.60;99481.97;5090803;27;20038;-90
2022/09/25 08:21:36;;;;;;;79.88;25.05;;;;;;;15.13;86.89;99482.97;5089925;27;20723;-90
2022/09/25 08:24:03;;;;;;;83.40;27.63;;;;;;;15.14;86.62;99482.81;5094601;27;20039;-90
2022/09/25 08:26:30;;;;;;;81.75;28.90;;;;;;;15.15;86.83;99489.00;5110521;27;20383;-90
2022/09/25 08:28:58;;;;;;;90.60;29.77;;;;;;;15.16;87.08;99485.28;5075818;27;20039;-89
2022/09/25 08:31:25;;;;;;;81.72;28.35;;;;;;;15.16;86.96;99487.97;5088012;27;20055;-90
2022/09/25 08:33:53;;;;;;;81.10;28.27;;;;;;;15.16;87.25;99487.97;5091288;27;20050;-90
2022/09/25 08:36:20;;;;;;;72.20;25.65;;;;;;;15.18;86.90;99486.78;5100270;27;20055;-90
2022/09/25 08:38:47;;;;;;;62.80;24.35;;;;;;;15.20;86.84;99483.94;5081819;27;20051;-89
2022/09/25 08:41:27;;;;;;;58.25;21.67;;;;;;;15.17;86.91;99478.97;5069287;27;20050;-89
2022/09/25 08:44:02;;;;;;;43.40;18.05;;;;;;;15.20;86.73;99483.94;5096692;27;20467;-89
2022/09/25 08:49:55;;;;;;;24.48;10.38;;;;;;;15.25;86.44;99478.09;5106370;27;20087;-91
2022/09/25 08:52:22;;;;;;;24.02;8.75;;;;;;;15.30;86.35;99476.53;5050660;27;20048;-90
2022/09/25 08:54:50;;;;;;;15.75;6.47;;;;;;;15.31;85.70;99472.84;5064085;28;20047;-88
2022/09/25 08:57:17;;;;;;;13.32;6.32;;;;;;;15.33;85.75;99473.50;5104688;27;20783;-90
2022/09/25 08:59:46;;;;;;;15.57;6.40;;;;;;;15.34;85.74;99474.34;5089361;27;20043;-91
2022/09/25 09:02:14;;;;;;;13.23;6.32;;;;;;;15.38;85.75;99467.66;5059784;27;20502;-89
2022/09/25 09:04:50;;;;;;;13.88;7.55;;;;;;;15.35;85.67;99474.19;5088710;27;20380;-90
2022/09/25 09:07:24;;;;;;;12.50;6.30;;;;;;;15.38;85.60;99468.47;5107568;27;20112;-89
2022/09/25 09:09:58;;;;;;;15.98;8.32;;;;;;;15.40;85.68;99469.13;5105922;27;20055;-90
2022/09/25 09:12:35;;;;;;;19.48;11.65;;;;;;;15.39;85.51;99472.84;5089212;27;20119;-89
2022/09/25 09:15:32;;;;;;;16.35;8.63;;;;;;;15.35;85.67;99465.31;5081572;27;20054;-89
2022/09/25 09:18:04;;;;;;;12.02;6.65;;;;;;;15.42;85.07;99466.28;5113938;27;20085;-88
2022/09/25 09:20:40;;;;;;;10.88;6.15;;;;;;;15.41;85.33;99467.28;5078958;27;20368;-88
2022/09/25 09:23:12;;;;;;;11.05;5.57;;;;;;;15.44;85.05;99474.13;5095317;27;20540;-89
2022/09/25 09:26:20;;;;;;;9.50;5.85;;;;;;;15.34;85.61;99469.84;5088587;27;20039;-89
2022/09/25 09:29:15;;;;;;;13.85;6.28;;;;;;;15.40;85.43;99469.13;5092836;27;20043;-88
2022/09/25 09:31:48;;;;;;;11.02;5.50;;;;;;;15.43;85.29;99465.28;5104742;27;20107;-87
2022/09/25 09:34:38;;;;;;;14.63;7.40;;;;;;;15.39;85.67;99474.66;5123568;27;20043;-88
2022/09/25 09:37:43;;;;;;;11.38;6.07;;;;;;;15.23;87.08;99472.91;5103123;27;20068;-88
2022/09/25 09:40:28;;;;;;;14.30;7.13;;;;;;;15.23;86.64;99474.75;5114538;27;20494;-88
2022/09/25 09:43:30;;;;;;;15.27;6.80;;;;;;;15.13;86.58;99472.28;5112389;27;20447;-88
2022/09/25 09:46:06;;;;;;;18.25;7.78;;;;;;;15.27;85.95;99476.06;5074373;27;20540;-88
2022/09/25 09:48:47;;;;;;;15.52;7.60;;;;;;;15.18;86.29;99473.41;5086218;27;20039;-88
2022/09/25 09:51:18;;;;;;;16.60;8.20;;;;;;;15.25;86.39;99473.56;5124687;27;20544;-89
2022/09/25 09:53:53;;;;;;;15.07;7.88;;;;;;;15.26;86.31;99474.38;5082400;27;20043;-90
2022/09/25 09:56:24;;;;;;;16.30;8.05;;;;;;;15.26;86.69;99472.53;5060013;27;20168;-89
2022/09/25 09:59:11;;;;;;;15.15;8.38;;;;;;;15.24;87.34;99473.72;5126471;27;20523;-90
2022/09/25 10:01:39;;;;;;;24.50;9.70;;;;;;;15.28;87.55;99473.22;5125070;27;20058;-89
2022/09/25 10:04:17;;;;;;;16.90;7.72;;;;;;;15.29;88.04;99477.56;5069917;27;20054;-90
2022/09/25 10:06:48;;;;;;;16.08;8.48;;;;;;;15.38;87.18;99475.66;5079791;28;20039;-91
2022/09/25 10:09:15;;;;;;;18.27;8.45;;;;;;;15.44;87.22;99471.44;5107233;27;20031;-90
2022/09/25 10:11:44;;;;;;;16.23;8.18;;;;;;;15.48;86.83;99462.06;5063041;27;20378;-90
2022/09/25 10:14:19;;;;;;;16.92;8.82;;;;;;;15.50;86.73;99457.38;5073334;27;20066;-90
2022/09/25 10:16:51;;;;;;;17.52;8.75;;;;;;;15.53;86.78;99463.22;5096869;27;20118;-90
2022/09/25 10:19:20;;;;;;;19.98;8.80;;;;;;;15.57;86.95;99467.19;5093497;27;20104;-90
2022/09/25 10:22:02;;;;;;;16.35;8.50;;;;;;;15.50;87.00;99462.75;5079246;27;20049;-89
2022/09/25 10:24:52;;;;;;;17.67;8.60;;;;;;;15.49;87.41;99464.56;5115421;27;20047;-90
2022/09/25 10:27:35;;;;;;;23.20;11.35;;;;;;;15.52;87.30;99460.69;5084532;27;20059;-90
2022/09/25 10:30:10;;;;;;;24.90;10.45;;;;;;;15.60;87.21;99466.03;5058640;27;20073;-90
2022/09/25 10:32:59;;;;;;;23.70;11.52;;;;;;;15.51;87.14;99464.38;5108489;27;20043;-89
2022/09/25 10:35:39;;;;;;;25.65;12.40;;;;;;;15.58;86.80;99457.31;5090636;27;20114;-89
2022/09/25 10:38:36;;;;;;;22.40;11.43;;;;;;;15.53;87.78;99460.53;5098096;27;20046;-89
2022/09/25 10:41:10;;;;;;;26.42;13.20;;;;;;;15.56;87.37;99462.00;5095699;27;20043;-89
2022/09/25 10:44:01;;;;;;;27.30;14.77;;;;;;;15.50;88.24;99457.38;5115473;27;20051;-89
2022/09/25 10:52:13;;;;;;;31.58;15.50;;;;;;;15.52;87.08;99460.69;5103346;27;20043;-85
2022/09/25 10:54:40;;;;;;;34.45;13.77;;;;;;;15.54;87.57;99459.50;5105655;27;20058;-86
2022/09/25 10:57:17;;;;;;;32.10;14.98;;;;;;;15.55;87.33;99460.38;5109921;27;20064;-86
2022/09/25 10:59:51;;;;;;;26.88;13.60;;;;;;;15.54;87.97;99458.69;5070579;27;20050;-87
2022/09/25 11:02:36;;;;;;;26.98;13.85;;;;;;;15.50;87.81;99454.72;5079266;27;20050;-86
2022/09/25 11:05:06;;;;;;;23.85;12.23;;;;;;;15.59;87.44;99459.81;5099712;27;20043;-86
2022/09/25 11:07:33;;;;;;;21.27;11.77;;;;;;;15.62;87.58;99458.63;5071081;27;20058;-85
2022/09/25 11:10:00;;;;;;;26.98;13.82;;;;;;;15.65;86.67;99460.97;5071658;27;20057;-86
2022/09/25 11:12:30;;;;;;;20.98;11.27;;;;;;;15.66;86.76;99462.63;5108833;27;20043;-86
2022/09/25 11:15:05;;;;;;;23.50;11.32;;;;;;;15.66;87.21;99461.78;5101690;27;20045;-86
2022/09/25 11:17:42;;;;;;;22.60;12.23;;;;;;;15.67;86.09;99463.44;5080792;27;20093;-86
2022/09/25 11:20:18;;;;;;;21.90;11.15;;;;;;;15.70;85.82;99458.63;5108556;27;20043;-87
2022/09/25 11:22:55;;;;;;;20.83;10.93;;;;;;;15.68;85.59;99457.94;5110115;27;20101;-87
2022/09/25 11:25:35;;;;;;;23.48;12.40;;;;;;;15.71;85.32;99459.44;5070991;27;20490;-87
2022/09/25 11:28:14;;;;;;;23.73;11.75;;;;;;;15.73;85.22;99460.94;5097352;27;20535;-87
2022/09/25 11:30:50;;;;;;;19.85;11.05;;;;;;;15.75;85.17;99463.44;5105100;27;20112;-87
2022/09/25 11:33:32;;;;;;;30.10;14.57;;;;;;;15.75;86.04;99461.59;5085193;27;20439;-87
2022/09/25 11:36:04;;;;;;;24.77;13.20;;;;;;;15.91;86.69;99454.44;5098419;27;20046;-86
2022/09/25 11:41:44;;;;;;;;;;;;;;;15.78;87.75;99458.56;5091659;27;20070;-87
2022/09/25 11:44:53;;;;;;;24.10;13.18;;;;;;;15.96;87.05;99452.06;5089726;27;19968;-86
2022/09/25 11:47:28;;;;;;;24.42;12.05;;;;;;;16.08;86.59;99439.91;5066815;28;20055;-86
2022/09/25 11:49:58;;;;;;;17.95;9.75;;;;;;;16.17;86.46;99443.34;5060022;27;20058;-87
2022/09/25 11:53:18;;;;;;;17.23;10.05;;;;;;;16.10;86.58;99445.06;5087840;27;20043;-86
2022/09/25 11:56:17;;;;;;;19.63;10.10;;;;;;;16.05;86.41;99445.59;5065811;28;20090;-87
2022/09/25 11:58:56;;;;;;;20.95;10.48;;;;;;;16.05;85.50;99445.59;5118291;27;20085;-89
2022/09/25 12:01:33;;;;;;;14.75;8.45;;;;;;;16.04;85.16;99444.78;5128616;27;20927;-86
2022/09/25 12:04:18;;;;;;;16.40;9.73;;;;;;;16.03;85.53;99447.66;5124067;27;20050;-88
2022/09/25 12:07:04;;;;;;;15.30;8.60;;;;;;;15.99;84.77;99449.03;5133074;27;20050;-89
2022/09/25 12:09:46;;;;;;;15.23;8.00;;;;;;;15.92;84.52;99448.06;5113644;27;20043;-89
2022/09/25 12:12:31;;;;;;;11.93;7.30;;;;;;;15.88;85.16;99446.78;5111827;27;20055;-89
2022/09/25 12:15:22;;;;;;;14.25;7.72;;;;;;;15.93;85.58;99447.06;5108673;27;20092;-89